createdAt,value
2022-10-01T00:02:36.662Z,9.24
2022-10-01T00:07:42.377Z,9.27
2022-10-01T00:12:48.838Z,9.27
2022-10-01T00:17:50.156Z,9.29
2022-10-01T00:22:52.306Z,9.32
2022-10-01T00:27:53.667Z,9.35
2022-10-01T00:32:55.145Z,9.38
2022-10-01T00:37:56.587Z,9.39
2022-10-01T00:42:57.890Z,9.50
2022-10-01T00:48:00.352Z,9.58
2022-10-01T00:53:04.932Z,9.59
2022-10-01T00:58:07.507Z,9.56
2022-10-01T01:03:09.907Z,9.59
2022-10-01T01:08:11.299Z,9.62
2022-10-01T01:13:32.979Z,9.60
2022-10-01T01:18:58.055Z,9.58
2022-10-01T01:24:18.093Z,9.56
2022-10-01T01:29:27.776Z,9.46
2022-10-01T01:34:30.881Z,9.41
2022-10-01T01:39:33.495Z,9.35
2022-10-01T01:44:38.999Z,9.33
2022-10-01T01:49:41.704Z,9.22
2022-10-01T01:54:44.563Z,9.21
2022-10-01T01:59:46.031Z,9.17
2022-10-01T02:04:49.983Z,9.02
2022-10-01T02:09:54.304Z,9.02
2022-10-01T02:15:05.444Z,8.97
2022-10-01T02:20:11.980Z,8.91
2022-10-01T02:25:15.845Z,8.86
2022-10-01T02:30:17.480Z,8.88
2022-10-01T02:35:19.443Z,8.91
2022-10-01T02:40:26.200Z,8.88
2022-10-01T02:45:27.710Z,8.90
2022-10-01T02:50:32.531Z,8.90
2022-10-01T02:55:37.236Z,8.93
2022-10-01T03:00:38.587Z,8.94
2022-10-01T03:05:40.170Z,8.97
2022-10-01T03:10:44.679Z,8.99
2022-10-01T03:15:47.895Z,9.05
2022-10-01T03:20:49.265Z,9.11
2022-10-01T03:25:50.578Z,9.17
2022-10-01T03:30:51.884Z,9.24
2022-10-01T03:35:53.186Z,9.31
2022-10-01T03:40:54.871Z,9.30
2022-10-01T03:45:56.679Z,9.36
2022-10-01T03:50:59.498Z,9.39
2022-10-01T03:56:01.156Z,9.48
2022-10-01T04:01:02.913Z,9.45
2022-10-01T04:06:04.238Z,9.54
2022-10-01T04:11:06.066Z,9.61
2022-10-01T04:16:07.521Z,9.69
2022-10-01T04:21:08.852Z,9.79
2022-10-01T04:26:10.156Z,9.85
2022-10-01T04:31:26.814Z,9.81
2022-10-01T04:36:28.405Z,9.73
2022-10-01T04:41:32.642Z,9.73
2022-10-01T04:46:34.254Z,9.67
2022-10-01T04:51:35.979Z,9.71
2022-10-01T04:56:37.543Z,9.59
2022-10-01T05:01:39.282Z,9.67
2022-10-01T05:06:41.369Z,9.66
2022-10-01T05:11:42.670Z,9.66
2022-10-01T05:16:44.110Z,9.60
2022-10-01T05:21:46.170Z,9.58
2022-10-01T05:26:47.486Z,9.57
2022-10-01T05:31:49.357Z,9.58
2022-10-01T05:36:50.681Z,9.65
2022-10-01T05:41:53.235Z,9.92
2022-10-01T05:46:54.584Z,10.14
2022-10-01T05:51:55.891Z,10.30
2022-10-01T05:56:57.314Z,10.31
2022-10-01T06:01:58.821Z,10.24
2022-10-01T06:07:00.535Z,10.34
2022-10-01T06:12:01.956Z,10.33
2022-10-01T06:17:03.319Z,10.38
2022-10-01T06:22:04.636Z,10.56
2022-10-01T06:27:05.945Z,10.48
2022-10-01T06:32:08.866Z,10.58
2022-10-01T06:37:10.202Z,10.62
2022-10-01T06:42:11.498Z,10.70
2022-10-01T06:47:12.800Z,10.82
2022-10-01T06:52:33.037Z,10.92
2022-10-01T06:57:34.345Z,10.97
2022-10-01T07:02:36.277Z,11.08
2022-10-01T07:07:38.051Z,11.21
2022-10-01T07:12:39.701Z,11.26
2022-10-01T07:17:45.125Z,11.29
2022-10-01T07:22:47.119Z,11.27
2022-10-01T07:27:48.457Z,11.34
2022-10-01T07:32:50.040Z,11.42
2022-10-01T07:37:51.513Z,11.42
2022-10-01T07:42:56.805Z,11.70
2022-10-01T07:47:59.537Z,11.99
2022-10-01T07:53:00.868Z,12.32
2022-10-01T07:58:02.713Z,12.52
2022-10-01T08:03:04.536Z,12.40
2022-10-01T08:08:07.026Z,12.24
2022-10-01T08:13:14.379Z,12.11
2022-10-01T08:18:17.688Z,12.02
2022-10-01T08:23:19.213Z,12.10
2022-10-01T08:28:20.546Z,12.12
2022-10-01T08:33:22.216Z,12.48
2022-10-01T08:38:23.510Z,13.17
2022-10-01T08:43:36.969Z,13.62
2022-10-01T08:48:44.480Z,13.24
2022-10-01T08:54:06.053Z,13.26
2022-10-01T08:59:17.333Z,13.81
2022-10-01T09:04:18.727Z,15.31
2022-10-01T09:09:20.069Z,14.48
2022-10-01T09:14:39.930Z,13.90
2022-10-01T09:19:47.747Z,13.61
2022-10-01T09:24:53.973Z,13.41
2022-10-01T09:29:58.332Z,13.38
2022-10-01T09:35:05.829Z,13.27
2022-10-01T09:40:21.397Z,13.38
2022-10-01T09:45:23.546Z,13.41
2022-10-01T09:50:34.698Z,13.62
2022-10-01T09:55:56.227Z,13.77
2022-10-01T10:00:57.619Z,14.14
2022-10-01T10:06:02.477Z,15.40
2022-10-01T10:11:08.774Z,15.70
2022-10-01T10:16:17.823Z,18.21
2022-10-01T10:21:25.330Z,21.40
2022-10-01T10:26:28.428Z,22.65
2022-10-01T10:31:35.645Z,22.41
2022-10-01T10:36:38.004Z,22.99
2022-10-01T10:41:44.153Z,23.94
2022-10-01T10:46:46.432Z,20.97
2022-10-01T10:51:51.386Z,22.60
2022-10-01T10:57:00.622Z,21.62
2022-10-01T11:02:04.656Z,20.82
2022-10-01T11:07:06.333Z,20.15
2022-10-01T11:12:15.672Z,20.31
2022-10-01T11:17:35.607Z,19.33
2022-10-01T11:22:36.876Z,19.34
2022-10-01T11:27:57.047Z,21.75
2022-10-01T11:33:10.716Z,20.54
2022-10-01T11:38:36.185Z,19.94
2022-10-01T11:43:40.838Z,19.11
2022-10-01T11:48:48.466Z,18.72
2022-10-01T11:53:52.372Z,19.96
2022-10-01T11:58:57.314Z,21.44
2022-10-01T12:04:06.253Z,23.69
2022-10-01T12:09:12.400Z,23.66
2022-10-01T12:14:19.688Z,23.22
2022-10-01T12:19:26.608Z,22.03
2022-10-01T12:24:34.611Z,21.42
2022-10-01T12:29:49.110Z,24.20
2022-10-01T12:34:59.307Z,23.53
2022-10-01T12:40:21.402Z,23.40
2022-10-01T12:45:22.794Z,24.06
2022-10-01T12:50:24.080Z,24.02
2022-10-01T12:55:37.090Z,21.10
2022-10-01T13:00:42.949Z,20.13
2022-10-01T13:05:51.098Z,19.25
2022-10-01T13:10:52.427Z,18.85
2022-10-01T13:16:03.405Z,20.17
2022-10-01T13:21:11.309Z,21.23
2022-10-01T13:26:19.094Z,21.80
2022-10-01T13:31:31.314Z,21.22
2022-10-01T13:36:34.905Z,20.38
2022-10-01T13:41:39.211Z,19.12
2022-10-01T13:47:13.329Z,18.20
2022-10-01T13:52:21.124Z,18.84
2022-10-01T13:57:26.911Z,19.52
2022-10-01T14:02:36.166Z,19.77
2022-10-01T14:07:38.948Z,20.10
2022-10-01T14:13:00.891Z,20.31
2022-10-01T14:18:05.355Z,20.68
2022-10-01T14:23:12.546Z,21.19
2022-10-01T14:28:21.214Z,20.08
2022-10-01T14:33:31.972Z,19.82
2022-10-01T14:38:34.196Z,19.32
2022-10-01T14:43:39.342Z,18.75
2022-10-01T14:48:41.288Z,18.16
2022-10-01T14:53:42.824Z,18.19
2022-10-01T14:58:48.941Z,17.87
2022-10-01T15:03:51.182Z,18.06
2022-10-01T15:08:54.673Z,17.65
2022-10-01T15:14:06.486Z,17.52
2022-10-01T15:19:09.392Z,17.11
2022-10-01T15:24:34.053Z,17.19
2022-10-01T15:29:36.644Z,17.30
2022-10-01T15:34:39.238Z,17.55
2022-10-01T15:39:41.360Z,17.52
2022-10-01T15:44:45.799Z,17.28
2022-10-01T15:50:05.187Z,17.32
2022-10-01T15:55:15.234Z,17.41
2022-10-01T16:00:23.999Z,17.09
2022-10-01T16:05:28.228Z,16.81
2022-10-01T16:10:32.788Z,16.73
2022-10-01T16:15:34.131Z,16.53
2022-10-01T16:20:39.734Z,16.30
2022-10-01T16:25:43.648Z,16.01
2022-10-01T16:30:49.854Z,15.77
2022-10-01T16:35:52.682Z,15.52
2022-10-01T16:40:54.040Z,15.31
2022-10-01T16:45:57.656Z,15.11
2022-10-01T16:50:59.266Z,14.93
2022-10-01T16:56:00.722Z,14.93
2022-10-01T17:01:07.593Z,14.78
2022-10-01T17:06:09.209Z,14.77
2022-10-01T17:11:12.754Z,14.84
2022-10-01T17:16:14.283Z,14.75
2022-10-01T17:21:15.672Z,14.55
2022-10-01T17:26:17.001Z,14.40
2022-10-01T17:31:18.450Z,14.25
2022-10-01T17:36:19.807Z,14.13
2022-10-01T17:41:21.115Z,14.11
2022-10-01T17:46:22.506Z,14.01
2022-10-01T17:51:23.946Z,13.91
2022-10-01T17:56:25.332Z,13.78
2022-10-01T18:01:26.692Z,13.63
2022-10-01T18:06:28.664Z,13.60
2022-10-01T18:11:30.045Z,13.63
2022-10-01T18:16:33.902Z,13.58
2022-10-01T18:21:37.163Z,13.35
2022-10-01T18:26:38.915Z,13.00
2022-10-01T18:31:41.037Z,12.64
2022-10-01T18:36:54.933Z,12.33
2022-10-01T18:41:56.660Z,12.13
2022-10-01T18:47:04.151Z,12.02
2022-10-01T18:52:05.558Z,11.82
2022-10-01T18:57:12.911Z,11.51
2022-10-01T19:02:21.940Z,11.30
2022-10-01T19:07:28.156Z,11.11
2022-10-01T19:12:38.930Z,11.03
2022-10-01T19:17:50.073Z,10.98
2022-10-01T19:23:03.751Z,10.84
2022-10-01T19:28:19.819Z,10.75
2022-10-01T19:33:21.620Z,10.56
2022-10-01T19:38:26.149Z,10.43
2022-10-01T19:43:37.268Z,10.31
2022-10-01T19:48:47.796Z,10.24
2022-10-01T19:53:51.269Z,10.02
2022-10-01T19:58:52.641Z,9.93
2022-10-01T20:04:00.471Z,9.99
2022-10-01T20:09:16.932Z,10.23
2022-10-01T20:14:50.617Z,10.38
2022-10-01T20:19:57.311Z,10.36
2022-10-01T20:25:14.763Z,10.26
2022-10-01T20:30:20.287Z,10.17
2022-10-01T20:35:29.568Z,10.11
2022-10-01T20:40:49.981Z,9.90
2022-10-01T20:45:52.517Z,9.66
2022-10-01T20:50:59.692Z,9.60
2022-10-01T20:56:18.804Z,9.52
2022-10-01T21:01:24.129Z,9.42
2022-10-01T21:06:30.143Z,9.33
2022-10-01T21:11:31.527Z,9.26
2022-10-01T21:16:52.534Z,9.32
2022-10-01T21:21:55.369Z,9.32
2022-10-01T21:27:06.033Z,9.40
2022-10-01T21:32:18.069Z,9.54
2022-10-01T21:37:39.563Z,9.67
2022-10-01T21:42:43.872Z,9.85
2022-10-01T21:48:03.491Z,9.83
2022-10-01T21:53:34.228Z,9.98
2022-10-01T21:58:35.818Z,9.92
2022-10-01T22:03:43.757Z,9.84
2022-10-01T22:08:54.303Z,9.80
2022-10-01T22:13:57.709Z,9.81
2022-10-01T22:19:09.643Z,9.77
2022-10-01T22:24:16.584Z,9.59
2022-10-01T22:29:20.272Z,9.33
2022-10-01T22:34:23.843Z,9.17
2022-10-01T22:39:26.374Z,9.04
2022-10-01T22:44:28.323Z,8.95
2022-10-01T22:49:39.214Z,8.86
2022-10-01T22:54:48.845Z,8.88
2022-10-01T23:00:05.423Z,8.77
2022-10-01T23:05:35.967Z,8.74
2022-10-01T23:10:45.917Z,8.67
2022-10-01T23:15:53.306Z,8.72
2022-10-01T23:21:17.682Z,8.87
2022-10-01T23:26:38.035Z,8.99
2022-10-01T23:31:44.572Z,8.89
2022-10-01T23:36:53.279Z,8.71
2022-10-01T23:42:06.751Z,8.66
2022-10-01T23:47:16.061Z,8.65
2022-10-01T23:52:22.719Z,8.75
2022-10-01T23:57:26.683Z,8.90
